Playa Giron, Cuba
Current Conditions -  °F | °C
As of 10:51 PM on Saturday 25 Oct 2014 (Local Time) from MUCL Reporting Station
Few Clouds Few Clouds  
Wind Chill: 79°   Ceiling: Unl
Heat Index: 81°   Visibility: 6mi
Dew Point: 68°   Wind: 18mph
Humidity: 69%   Direction: 10°N
Pressure: 29.91"   Gusts: NA
Location:  22.07°N, 81.04°W
Report Text: MUCL 260251Z 01016KT 9000 FEW018 26/20 Q1013
Loading
Personal Weather Stations






























Interactive Weather Map
Tropical Storm Tracking
New forecast layout! Learn more

10-Day Weather Forecast

Advertisements
Track Severe Weather on mobile